createdAt,value
2023-03-26T00:01:47.461Z,24.20
2023-03-26T00:04:14.919Z,26.15
2023-03-26T00:06:42.215Z,17.90
2023-03-26T00:09:13.752Z,19.08
2023-03-26T00:11:41.622Z,21.23
2023-03-26T00:14:14.267Z,17.48
2023-03-26T00:16:44.087Z,15.15
2023-03-26T00:19:12.855Z,13.73
2023-03-26T00:21:40.320Z,13.55
2023-03-26T00:24:16.442Z,10.27
2023-03-26T00:26:45.090Z,8.73
2023-03-26T00:29:14.085Z,7.78
2023-03-26T00:31:41.485Z,6.95
2023-03-26T00:34:10.907Z,7.00
2023-03-26T00:36:38.570Z,5.70
2023-03-26T00:39:06.621Z,5.75
2023-03-26T00:41:37.485Z,5.97
2023-03-26T00:44:05.307Z,4.75
2023-03-26T00:46:33.100Z,5.45
2023-03-26T00:49:02.205Z,3.40
2023-03-26T00:51:30.302Z,3.25
2023-03-26T00:53:58.429Z,3.42
2023-03-26T00:56:26.449Z,3.53
2023-03-26T00:58:53.992Z,1.73
2023-03-26T01:01:28.629Z,1.67
2023-03-26T01:06:33.135Z,1.05
2023-03-26T01:09:13.001Z,1.33
2023-03-26T01:11:40.446Z,0.90
2023-03-26T01:14:16.500Z,1.00
2023-03-26T01:16:46.680Z,1.05
2023-03-26T01:19:29.960Z,1.63
2023-03-26T01:21:59.447Z,1.42
2023-03-26T01:24:27.069Z,1.55
2023-03-26T01:27:00.900Z,0.90
2023-03-26T01:29:48.660Z,1.33
2023-03-26T01:32:40.390Z,0.85
2023-03-26T01:35:39.244Z,0.65
2023-03-26T01:38:19.014Z,5.97
2023-03-26T01:41:21.263Z,1.75
2023-03-26T01:44:03.462Z,4.97
2023-03-26T01:46:36.630Z,1.58
2023-03-26T01:49:13.524Z,1.58
2023-03-26T01:51:42.966Z,3.13
2023-03-26T01:54:19.186Z,1.63
2023-03-26T01:57:21.267Z,2.50
2023-03-26T02:00:25.181Z,1.42
2023-03-26T02:02:55.882Z,1.00
2023-03-26T02:05:32.287Z,2.20
2023-03-26T02:08:21.310Z,2.17
2023-03-26T02:10:56.130Z,2.20
2023-03-26T02:13:24.620Z,2.95
2023-03-26T02:16:00.492Z,2.33
2023-03-26T02:18:36.736Z,4.35
2023-03-26T02:21:12.501Z,1.40
2023-03-26T02:23:47.257Z,2.63
2023-03-26T02:26:18.217Z,3.17
2023-03-26T02:29:13.657Z,1.13
2023-03-26T02:31:43.613Z,1.65
2023-03-26T02:34:11.756Z,2.03
2023-03-26T02:36:45.868Z,1.25
2023-03-26T02:39:14.817Z,1.33
2023-03-26T02:41:48.089Z,1.92
2023-03-26T02:44:15.736Z,2.17
2023-03-26T02:46:58.247Z,3.42
2023-03-26T02:49:48.676Z,2.10
2023-03-26T02:52:39.476Z,2.10
2023-03-26T02:55:08.096Z,1.58
2023-03-26T02:57:36.910Z,2.65
2023-03-26T03:00:22.310Z,2.78
2023-03-26T03:03:09.830Z,1.67
2023-03-26T03:05:57.693Z,1.88
2023-03-26T03:08:31.098Z,2.55
2023-03-26T03:11:27.216Z,2.40
2023-03-26T03:13:55.523Z,1.73
2023-03-26T03:16:26.045Z,3.67
2023-03-26T03:18:58.063Z,2.67
2023-03-26T03:21:37.189Z,1.73
2023-03-26T03:24:05.308Z,4.32
2023-03-26T03:26:36.651Z,1.08
2023-03-26T03:29:30.764Z,1.15
2023-03-26T03:32:06.225Z,1.02
2023-03-26T03:34:45.383Z,1.80
2023-03-26T03:37:12.970Z,2.67
2023-03-26T03:39:49.345Z,1.95
2023-03-26T03:42:20.236Z,1.05
2023-03-26T03:44:49.702Z,1.50
2023-03-26T03:47:39.922Z,1.75
2023-03-26T03:50:08.649Z,1.90
2023-03-26T03:52:37.398Z,3.63
2023-03-26T03:55:05.812Z,1.10
2023-03-26T03:57:43.752Z,1.48
2023-03-26T04:00:17.645Z,2.08
2023-03-26T04:03:06.736Z,1.35
2023-03-26T04:05:35.262Z,1.35
2023-03-26T04:08:02.679Z,1.88
2023-03-26T04:10:59.760Z,3.97
2023-03-26T04:13:47.534Z,1.90
2023-03-26T04:16:29.744Z,2.63
2023-03-26T04:18:58.760Z,2.45
2023-03-26T04:21:30.946Z,2.83
2023-03-26T04:24:02.301Z,2.83
2023-03-26T04:26:53.742Z,3.13
2023-03-26T04:29:30.830Z,1.27
2023-03-26T04:31:59.541Z,3.25
2023-03-26T04:34:30.171Z,2.00
2023-03-26T04:37:07.644Z,2.47
2023-03-26T04:39:41.993Z,1.27
2023-03-26T04:42:33.676Z,1.58
2023-03-26T04:45:11.681Z,2.13
2023-03-26T04:47:41.986Z,1.95
2023-03-26T04:50:10.746Z,1.92
2023-03-26T04:52:40.566Z,1.65
2023-03-26T04:55:37.298Z,2.00
2023-03-26T04:58:14.446Z,2.65
2023-03-26T05:01:10.429Z,2.10
2023-03-26T05:03:42.051Z,3.72
2023-03-26T05:06:14.073Z,1.30
2023-03-26T05:08:42.456Z,3.00
2023-03-26T05:11:17.908Z,2.72
2023-03-26T05:13:45.792Z,3.25
2023-03-26T05:16:18.644Z,3.05
2023-03-26T05:18:56.765Z,3.97
2023-03-26T05:21:28.531Z,4.20
2023-03-26T05:23:56.141Z,4.72
2023-03-26T05:26:23.915Z,3.67
2023-03-26T05:28:52.759Z,3.00
2023-03-26T05:31:35.943Z,1.67
2023-03-26T05:34:04.346Z,2.03
2023-03-26T05:36:32.346Z,1.23
2023-03-26T05:39:27.266Z,1.58
2023-03-26T05:42:03.790Z,2.38
2023-03-26T05:44:50.193Z,1.85
2023-03-26T05:47:23.916Z,1.88
2023-03-26T05:49:51.912Z,3.72
2023-03-26T05:52:19.561Z,1.45
2023-03-26T05:55:10.944Z,1.77
2023-03-26T05:58:00.192Z,1.50
2023-03-26T06:00:49.284Z,1.27
2023-03-26T06:03:29.094Z,1.15
2023-03-26T06:06:18.219Z,2.03
2023-03-26T06:09:01.158Z,2.58
2023-03-26T06:11:32.814Z,1.85
2023-03-26T06:14:02.567Z,1.20
2023-03-26T06:16:31.285Z,0.98
2023-03-26T06:19:17.909Z,2.47
2023-03-26T06:22:03.982Z,1.55
2023-03-26T06:24:44.368Z,1.27
2023-03-26T06:27:39.569Z,0.70
2023-03-26T06:30:45.135Z,1.45
2023-03-26T06:33:46.476Z,1.50
2023-03-26T06:36:14.880Z,1.30
2023-03-26T06:38:42.742Z,1.05
2023-03-26T06:41:10.569Z,1.25
2023-03-26T06:43:39.542Z,1.60
2023-03-26T06:46:25.970Z,1.83
2023-03-26T06:49:17.480Z,1.73
2023-03-26T06:52:13.606Z,2.22
2023-03-26T06:55:02.123Z,2.58
2023-03-26T06:58:06.949Z,4.10
2023-03-26T07:00:37.490Z,2.83
2023-03-26T07:03:23.630Z,2.42
2023-03-26T07:06:20.661Z,2.85
2023-03-26T07:09:07.490Z,2.22
2023-03-26T07:11:53.771Z,3.60
2023-03-26T07:15:00.357Z,4.45
2023-03-26T07:17:37.480Z,3.40
2023-03-26T07:20:13.657Z,3.97
2023-03-26T07:22:42.599Z,5.38
2023-03-26T07:25:18.209Z,4.13
2023-03-26T07:28:18.787Z,4.35
2023-03-26T07:31:25.588Z,5.03
2023-03-26T07:34:39.578Z,5.20
2023-03-26T07:40:50.050Z,7.47
2023-03-26T07:43:45.959Z,9.07
2023-03-26T07:46:38.007Z,7.75
2023-03-26T07:49:25.376Z,6.90
2023-03-26T07:52:12.283Z,6.25
2023-03-26T07:54:49.442Z,8.00
2023-03-26T07:57:44.689Z,5.90
2023-03-26T08:00:45.518Z,6.07
2023-03-26T08:03:17.440Z,6.83
2023-03-26T08:06:11.216Z,6.13
2023-03-26T08:09:00.561Z,6.00
2023-03-26T08:12:14.638Z,7.00
2023-03-26T08:15:29.908Z,10.48
2023-03-26T08:18:16.585Z,6.47
2023-03-26T08:20:49.856Z,6.18
2023-03-26T08:23:50.662Z,5.90
2023-03-26T08:26:34.660Z,6.18
2023-03-26T08:29:14.124Z,5.95
2023-03-26T08:31:45.160Z,7.82
2023-03-26T08:34:14.139Z,8.82
2023-03-26T08:36:41.853Z,7.32
2023-03-26T08:39:09.440Z,6.72
2023-03-26T08:42:03.314Z,7.95
2023-03-26T08:45:08.237Z,6.65
2023-03-26T08:47:50.028Z,10.50
2023-03-26T08:50:32.984Z,8.13
2023-03-26T08:56:12.617Z,7.80
2023-03-26T08:59:08.984Z,7.57
2023-03-26T09:01:52.059Z,5.53
2023-03-26T09:04:52.583Z,5.40
2023-03-26T09:07:54.031Z,5.00
2023-03-26T09:10:40.636Z,6.72
2023-03-26T09:13:26.531Z,6.93
2023-03-26T09:16:42.444Z,7.38
2023-03-26T09:19:22.267Z,8.32
2023-03-26T09:22:01.816Z,5.22
2023-03-26T09:25:00.500Z,5.75
2023-03-26T09:27:46.326Z,5.72
2023-03-26T09:30:40.002Z,7.35
2023-03-26T09:33:32.527Z,7.82
2023-03-26T09:36:19.751Z,7.80
2023-03-26T09:39:13.175Z,6.78
2023-03-26T09:45:01.602Z,4.55
2023-03-26T09:47:49.936Z,6.50
2023-03-26T09:50:30.220Z,5.03
2023-03-26T09:53:00.680Z,6.50
2023-03-26T09:59:05.386Z,7.47
2023-03-26T10:02:04.619Z,4.45
2023-03-26T10:04:38.202Z,2.50
2023-03-26T10:07:30.404Z,5.28
2023-03-26T10:10:26.961Z,3.17
2023-03-26T10:13:15.833Z,3.78
2023-03-26T10:16:05.335Z,3.38
2023-03-26T10:19:08.173Z,5.22
2023-03-26T10:21:56.946Z,2.83
2023-03-26T10:24:34.920Z,2.78
2023-03-26T10:27:11.594Z,4.60
2023-03-26T10:29:58.066Z,4.07
2023-03-26T10:32:52.492Z,2.85
2023-03-26T10:35:25.453Z,3.00
2023-03-26T10:38:19.523Z,3.33
2023-03-26T10:41:04.946Z,3.05
2023-03-26T10:44:05.283Z,2.88
2023-03-26T10:46:45.092Z,1.52
2023-03-26T10:49:31.186Z,2.85
2023-03-26T10:52:06.980Z,3.80
2023-03-26T10:54:47.258Z,2.65
2023-03-26T10:57:54.597Z,3.67
2023-03-26T11:00:27.334Z,2.38
2023-03-26T11:03:04.336Z,2.33
2023-03-26T11:06:04.535Z,2.45
2023-03-26T11:08:47.267Z,2.17
2023-03-26T11:11:38.889Z,1.90
2023-03-26T11:14:51.653Z,3.40
2023-03-26T11:17:56.457Z,1.23
2023-03-26T11:20:55.926Z,1.27
2023-03-26T11:23:43.503Z,1.50
2023-03-26T11:26:22.613Z,1.20
2023-03-26T11:29:31.751Z,2.15
2023-03-26T11:32:14.787Z,1.60
2023-03-26T11:35:06.844Z,2.15
2023-03-26T11:37:49.233Z,2.13
2023-03-26T11:40:33.027Z,3.63
